Time;durP1;ratioP1;P1;durP2;ratioP2;P2;SDS_P1;SDS_P2;PMS_P1;PMS_P2;Temp;Humidity;BMP_temperature;BMP_pressure;BME280_temperature;BME280_humidity;BME280_pressure;Samples;Min_cycle;Max_cycle;Signal;HPM_P1;HPM_P2
2023/04/18 00:01:33;;;;;;;9.73;3.92;;;;;;;8.04;100.00;102762.53;5052167;28;20046;-93
2023/04/18 00:04:16;;;;;;;9.80;3.35;;;;;;;7.80;100.00;102748.50;5037405;28;20053;-94
2023/04/18 00:06:57;;;;;;;9.88;3.50;;;;;;;7.91;100.00;102780.72;5037420;28;20092;-94
2023/04/18 00:09:38;;;;;;;9.55;4.30;;;;;;;7.77;100.00;102778.06;5036376;28;20064;-92
2023/04/18 00:12:19;;;;;;;11.35;3.58;;;;;;;7.58;100.00;102735.34;5022164;28;20369;-94
2023/04/18 00:15:01;;;;;;;11.95;4.85;;;;;;;7.60;100.00;102737.94;5037124;28;20143;-94
2023/04/18 00:17:42;;;;;;;15.38;4.28;;;;;;;7.77;100.00;102779.78;5036836;28;20049;-94
2023/04/18 00:20:25;;;;;;;11.98;4.40;;;;;;;7.66;100.00;102777.09;5036843;28;20077;-95
2023/04/18 00:23:06;;;;;;;9.60;3.80;;;;;;;7.77;100.00;102769.34;5023286;28;20091;-95
2023/04/18 00:25:47;;;;;;;8.43;3.58;;;;;;;7.98;100.00;102779.94;5037841;28;20056;-94
2023/04/18 00:28:28;;;;;;;11.05;3.55;;;;;;;7.67;100.00;102742.34;5037450;28;20460;-92
2023/04/18 00:31:09;;;;;;;10.55;3.53;;;;;;;7.71;100.00;102746.72;5037454;28;20053;-94
2023/04/18 00:33:49;;;;;;;12.38;3.85;;;;;;;7.59;100.00;102724.03;5023229;28;20076;-94
2023/04/18 00:36:30;;;;;;;10.75;4.80;;;;;;;7.77;100.00;102757.19;5037025;28;20061;-95
2023/04/18 00:39:12;;;;;;;12.52;4.38;;;;;;;8.01;100.00;102789.50;5052275;28;20029;-95
2023/04/18 00:41:52;;;;;;;8.98;3.63;;;;;;;7.76;100.00;102771.09;5024230;28;20053;-96
2023/04/18 00:44:33;;;;;;;9.10;3.33;;;;;;;7.61;100.00;102739.69;5038485;28;20030;-94
2023/04/18 00:47:20;;;;;;;11.93;4.55;;;;;;;7.47;100.00;102702.22;5038456;28;20053;-95
2023/04/18 00:50:05;;;;;;;9.88;3.95;;;;;;;7.83;100.00;102782.44;5022321;28;20045;-95
2023/04/18 00:52:46;;;;;;;13.63;5.32;;;;;;;7.10;100.00;102707.16;5008240;28;20058;-93
2023/04/18 00:55:28;;;;;;;16.20;6.35;;;;;;;7.34;100.00;102785.53;5036800;28;20148;-93
2023/04/18 00:58:09;;;;;;;12.98;5.47;;;;;;;7.47;100.00;102759.56;5036079;28;20049;-93
2023/04/18 01:00:51;;;;;;;13.25;4.65;;;;;;;7.49;100.00;102747.41;5036541;28;20111;-94
2023/04/18 01:03:31;;;;;;;13.90;5.47;;;;;;;7.56;100.00;102757.91;5056513;28;20425;-92
2023/04/18 01:06:12;;;;;;;13.43;5.68;;;;;;;7.36;100.00;102752.53;5056549;28;20040;-94
2023/04/18 01:08:55;;;;;;;13.40;5.20;;;;;;;7.71;100.00;102792.78;5057889;28;20036;-95
2023/04/18 01:11:36;;;;;;;13.97;4.57;;;;;;;7.65;100.00;102788.41;5042423;28;20049;-94
2023/04/18 01:14:24;;;;;;;14.68;6.60;;;;;;;7.51;100.00;102793.50;5042301;28;20055;-95
2023/04/18 01:17:06;;;;;;;15.15;5.55;;;;;;;7.24;100.00;102752.41;5035624;28;20053;-90
2023/04/18 01:19:36;;;;;;;15.15;6.28;;;;;;;7.16;100.00;102754.97;5067106;28;20045;-89
2023/04/18 01:22:18;;;;;;;15.63;6.07;;;;;;;7.35;100.00;102758.63;5065496;28;20056;-90
2023/04/18 01:24:46;;;;;;;12.13;5.22;;;;;;;7.78;100.00;102795.44;5056377;28;20028;-95
2023/04/18 01:27:34;;;;;;;10.35;4.30;;;;;;;7.49;100.00;102753.53;5060304;28;20044;-94
2023/04/18 01:30:32;;;;;;;18.42;6.63;;;;;;;7.45;100.00;102782.16;5061186;28;20067;-94
2023/04/18 01:33:12;;;;;;;14.38;6.32;;;;;;;6.99;100.00;102697.53;5045341;28;20041;-94
2023/04/18 01:35:53;;;;;;;14.82;5.57;;;;;;;6.90;100.00;102683.53;5059757;28;20087;-93
2023/04/18 01:38:34;;;;;;;15.13;6.10;;;;;;;7.06;100.00;102732.28;5059341;28;20056;-95
2023/04/18 01:41:15;;;;;;;15.57;6.38;;;;;;;7.21;100.00;102776.72;5059391;28;20051;-94
2023/04/18 01:43:56;;;;;;;13.57;6.40;;;;;;;6.88;100.00;102669.66;5045072;28;20048;-93
2023/04/18 01:46:37;;;;;;;17.33;7.63;;;;;;;6.76;100.00;102694.69;5058810;28;20060;-92
2023/04/18 01:49:18;;;;;;;13.57;6.20;;;;;;;7.40;100.00;102800.34;5044992;28;20098;-93
2023/04/18 01:51:59;;;;;;;13.30;6.30;;;;;;;6.31;100.00;102617.06;5031169;28;20116;-95
2023/04/18 01:54:40;;;;;;;11.43;5.30;;;;;;;6.39;100.00;102599.78;5060007;28;20056;-93
2023/04/18 01:57:21;;;;;;;16.08;7.20;;;;;;;6.89;100.00;102692.19;5044530;28;20057;-95
2023/04/18 02:00:05;;;;;;;15.30;6.43;;;;;;;6.80;100.00;102693.03;5044755;28;20045;-95
2023/04/18 02:02:49;;;;;;;15.25;7.05;;;;;;;7.17;100.00;102761.03;5044677;28;20059;-93
2023/04/18 02:05:29;;;;;;;16.08;6.80;;;;;;;7.31;100.00;102782.91;5044196;28;20028;-94
2023/04/18 02:08:10;;;;;;;16.48;8.18;;;;;;;6.63;100.00;102695.44;5058302;28;20049;-94
2023/04/18 02:10:51;;;;;;;17.70;8.85;;;;;;;6.03;100.00;102635.81;5059062;28;20391;-95
2023/04/18 02:13:32;;;;;;;13.15;5.72;;;;;;;6.63;100.00;102690.25;5059056;28;20083;-95
2023/04/18 02:16:13;;;;;;;16.20;7.20;;;;;;;7.17;100.00;102785.41;5044468;28;20091;-95
2023/04/18 02:18:54;;;;;;;16.30;8.55;;;;;;;6.28;100.00;102646.50;5059086;28;20045;-94
2023/04/18 02:21:35;;;;;;;12.75;6.38;;;;;;;6.71;100.00;102688.59;5045108;28;20497;-94
2023/04/18 02:24:16;;;;;;;13.43;6.57;;;;;;;6.98;100.00;102710.53;5030280;28;20033;-95
2023/04/18 02:26:57;;;;;;;17.13;6.78;;;;;;;7.20;100.00;102751.53;5059077;28;20049;-91
2023/04/18 02:29:38;;;;;;;14.95;6.20;;;;;;;7.51;100.00;102793.50;5058604;28;20045;-94
2023/04/18 02:32:19;;;;;;;16.60;6.90;;;;;;;7.36;100.00;102791.63;5059318;28;20029;-95
2023/04/18 02:34:59;;;;;;;18.17;8.85;;;;;;;7.21;100.00;102787.16;5073580;28;20101;-94
2023/04/18 02:37:40;;;;;;;18.08;9.10;;;;;;;6.98;100.00;102758.28;5059447;28;20044;-94
2023/04/18 02:40:21;;;;;;;14.55;7.55;;;;;;;6.76;100.00;102719.88;5044598;28;20066;-94
2023/04/18 02:43:02;;;;;;;14.52;6.70;;;;;;;7.11;100.00;102768.81;5058845;28;20032;-93
2023/04/18 02:45:42;;;;;;;13.82;6.38;;;;;;;7.12;100.00;102788.78;5058789;28;20060;-94
2023/04/18 02:48:23;;;;;;;14.77;6.85;;;;;;;7.32;100.00;102821.13;5058476;28;20036;-94
2023/04/18 02:51:06;;;;;;;13.32;6.75;;;;;;;6.91;100.00;102768.63;5044261;28;20045;-94
2023/04/18 02:53:47;;;;;;;13.02;6.03;;;;;;;7.09;100.00;102792.25;5043922;28;20048;-94
2023/04/18 02:56:28;;;;;;;15.02;6.30;;;;;;;6.89;100.00;102747.78;5029269;28;20108;-93
2023/04/18 02:59:12;;;;;;;17.67;8.77;;;;;;;7.10;100.00;102813.94;5044402;28;20058;-93
2023/04/18 03:01:54;;;;;;;15.35;7.90;;;;;;;6.16;100.00;102625.56;5073291;28;20063;-95
2023/04/18 03:04:34;;;;;;;16.23;8.13;;;;;;;6.43;100.00;102697.84;5042417;28;20051;-95
2023/04/18 03:07:15;;;;;;;12.35;5.97;;;;;;;6.94;100.00;102789.47;5058233;28;20040;-94
2023/04/18 03:09:56;;;;;;;12.88;5.80;;;;;;;6.76;100.00;102720.72;5058482;28;20044;-94
2023/04/18 03:12:37;;;;;;;13.85;6.53;;;;;;;6.65;100.00;102722.34;5057908;28;20048;-94
2023/04/18 03:15:18;;;;;;;14.02;6.65;;;;;;;6.75;100.00;102733.75;5058915;28;20037;-94
2023/04/18 03:17:59;;;;;;;12.25;5.95;;;;;;;6.26;100.00;102651.69;5058490;28;20051;-93
2023/04/18 03:20:40;;;;;;;12.63;6.57;;;;;;;6.17;100.00;102635.97;5044203;28;20491;-93
2023/04/18 03:23:21;;;;;;;10.40;4.53;;;;;;;6.21;100.00;102629.94;5044402;28;20053;-90
2023/04/18 03:26:04;;;;;;;12.15;5.63;;;;;;;6.90;100.00;102733.03;5059125;28;20045;-94
2023/04/18 03:28:45;;;;;;;12.20;5.15;;;;;;;7.69;100.00;102855.34;5057858;28;20064;-95
2023/04/18 03:31:25;;;;;;;11.35;4.85;;;;;;;6.38;100.00;102643.16;5058356;28;20045;-94
2023/04/18 03:34:07;;;;;;;11.70;5.53;;;;;;;7.64;100.00;102827.50;5058702;28;20048;-94
2023/04/18 03:36:48;;;;;;;18.45;9.30;;;;;;;7.18;100.00;102802.75;5029047;28;20036;-96
2023/04/18 03:39:29;;;;;;;19.08;8.23;;;;;;;6.34;100.00;102685.59;5057735;28;20460;-95
2023/04/18 03:42:11;;;;;;;11.35;5.38;;;;;;;6.06;100.00;102648.84;5043484;28;20072;-93
2023/04/18 03:44:52;;;;;;;13.43;5.38;;;;;;;7.02;100.00;102798.25;5043626;28;20041;-95
2023/04/18 03:47:32;;;;;;;13.77;6.47;;;;;;;6.58;100.00;102710.13;5056838;28;20108;-93
2023/04/18 03:50:13;;;;;;;15.65;7.03;;;;;;;7.06;100.00;102797.41;5056821;28;20057;-94
2023/04/18 03:52:54;;;;;;;14.70;6.93;;;;;;;7.18;100.00;102763.66;5057169;28;20108;-94
2023/04/18 03:55:35;;;;;;;12.27;5.43;;;;;;;7.48;100.00;102809.09;5043056;28;20060;-94
2023/04/18 03:58:16;;;;;;;12.80;6.05;;;;;;;6.91;100.00;102719.16;5057227;28;20040;-94
2023/04/18 04:00:59;;;;;;;16.02;7.72;;;;;;;6.46;100.00;102688.34;5057197;28;20076;-95
2023/04/18 04:03:40;;;;;;;14.23;7.07;;;;;;;6.15;100.00;102657.63;5043779;28;20056;-95
2023/04/18 04:06:21;;;;;;;13.25;5.93;;;;;;;6.53;100.00;102691.00;5043161;28;20033;-92
2023/04/18 04:09:02;;;;;;;10.52;4.68;;;;;;;7.76;100.00;102888.44;5057248;28;20037;-95
2023/04/18 04:11:44;;;;;;;12.98;5.75;;;;;;;7.72;100.00;102886.66;5042896;28;20037;-95
2023/04/18 04:14:25;;;;;;;12.32;5.35;;;;;;;7.18;100.00;102775.84;5056938;28;20048;-95
2023/04/18 04:17:06;;;;;;;13.65;6.07;;;;;;;7.12;100.00;102780.97;5071732;28;20052;-94
2023/04/18 04:19:49;;;;;;;14.82;5.95;;;;;;;7.02;100.00;102762.66;5042058;28;20041;-95
2023/04/18 04:22:30;;;;;;;12.67;5.60;;;;;;;7.26;100.00;102812.38;5056801;28;20044;-93
2023/04/18 04:25:12;;;;;;;21.15;9.15;;;;;;;6.89;100.00;102836.31;5056633;28;20088;-95
2023/04/18 04:27:54;;;;;;;15.85;8.32;;;;;;;6.52;100.00;102782.97;5057062;28;20080;-94
2023/04/18 04:30:34;;;;;;;14.45;6.35;;;;;;;6.67;100.00;102783.13;5042030;28;20112;-93
2023/04/18 04:33:20;;;;;;;17.52;8.65;;;;;;;7.17;100.00;102855.75;5057194;28;20060;-92
2023/04/18 04:36:01;;;;;;;19.15;9.35;;;;;;;7.51;100.00;102904.72;5056902;28;20053;-92
2023/04/18 04:38:43;;;;;;;13.68;5.80;;;;;;;7.12;100.00;102833.06;5056786;28;20049;-94
2023/04/18 04:41:24;;;;;;;14.32;6.63;;;;;;;7.30;100.00;102863.69;5055696;28;20136;-94
2023/04/18 04:44:05;;;;;;;13.18;7.07;;;;;;;7.42;100.00;102874.22;5056030;28;20053;-94
2023/04/18 04:46:48;;;;;;;15.38;7.68;;;;;;;6.84;100.00;102791.13;5057205;28;20083;-93
2023/04/18 04:49:29;;;;;;;14.30;7.55;;;;;;;6.65;100.00;102758.81;5028108;28;20033;-93
2023/04/18 04:52:10;;;;;;;22.67;10.05;;;;;;;6.32;100.00;102728.94;5059609;28;20060;-92
2023/04/18 04:54:51;;;;;;;13.15;7.18;;;;;;;6.92;100.00;102801.63;5059851;28;20044;-94
2023/04/18 04:57:31;;;;;;;14.55;7.50;;;;;;;6.69;100.00;102762.31;5059885;28;20058;-92
2023/04/18 05:00:13;;;;;;;19.45;9.50;;;;;;;6.89;100.00;102797.25;5060175;28;20063;-95
2023/04/18 05:02:54;;;;;;;18.70;10.38;;;;;;;6.89;100.00;102783.34;5060352;28;20036;-95
2023/04/18 05:05:35;;;;;;;18.75;9.30;;;;;;;6.52;100.00;102746.53;5060456;28;20126;-93
2023/04/18 05:08:16;;;;;;;18.50;9.20;;;;;;;6.62;100.00;102740.53;5060539;28;20102;-94
2023/04/18 05:10:57;;;;;;;15.50;8.25;;;;;;;7.01;100.00;102817.34;5059988;28;20080;-94
2023/04/18 05:13:39;;;;;;;14.43;7.70;;;;;;;7.33;100.00;102859.38;5075423;28;20048;-92
2023/04/18 05:16:20;;;;;;;16.73;9.15;;;;;;;6.99;100.00;102832.97;5060526;28;20037;-95
2023/04/18 05:19:01;;;;;;;17.77;8.43;;;;;;;6.71;100.00;102776.22;5075389;28;20056;-94
2023/04/18 05:21:43;;;;;;;16.83;8.68;;;;;;;6.81;100.00;102804.09;5060398;28;20063;-93
2023/04/18 05:24:24;;;;;;;17.23;10.13;;;;;;;7.51;100.00;102909.94;5031865;28;20044;-94
2023/04/18 05:27:05;;;;;;;15.45;8.02;;;;;;;7.50;100.00;102909.03;5032088;28;20589;-94
2023/04/18 05:29:46;;;;;;;14.10;7.38;;;;;;;7.67;100.00;102929.22;5061017;28;20045;-93
2023/04/18 05:32:27;;;;;;;16.42;8.30;;;;;;;7.62;100.00;102930.91;5047069;28;20063;-94
2023/04/18 05:35:23;;;;;;;13.60;7.00;;;;;;;7.81;100.00;102925.00;5039761;28;20076;-94
2023/04/18 05:38:04;;;;;;;16.38;9.02;;;;;;;7.37;100.00;102883.72;5061530;28;20049;-95
2023/04/18 05:40:45;;;;;;;15.25;6.97;;;;;;;7.63;100.00;102909.16;5061127;28;20083;-94
2023/04/18 05:43:25;;;;;;;13.95;7.70;;;;;;;7.63;100.00;102894.38;5060163;28;20100;-95
2023/04/18 05:46:07;;;;;;;18.40;10.10;;;;;;;7.76;100.00;102929.28;5072981;28;20060;-93
2023/04/18 05:48:51;;;;;;;15.20;7.85;;;;;;;7.57;100.00;102913.47;5056572;28;20100;-91
2023/04/18 05:51:34;;;;;;;15.88;8.02;;;;;;;7.77;100.00;102928.41;5040658;28;20047;-95
2023/04/18 05:54:15;;;;;;;;;;;;;;;7.95;100.00;102939.03;5043425;28;20071;-93
2023/04/18 05:56:56;;;;;;;18.35;9.23;;;;;;;7.48;100.00;102865.59;5037820;28;19975;-93
2023/04/18 05:59:37;;;;;;;19.83;8.75;;;;;;;7.75;100.00;102904.94;5055850;28;20041;-87
2023/04/18 06:02:18;;;;;;;16.33;7.97;;;;;;;7.88;100.00;102892.00;5052605;28;20533;-91
2023/04/18 06:04:58;;;;;;;13.48;7.10;;;;;;;8.00;100.00;102902.53;5065821;28;20056;-92
2023/04/18 06:07:39;;;;;;;13.93;7.07;;;;;;;7.89;100.00;102923.31;5044681;28;20052;-89
2023/04/18 06:10:12;;;;;;;17.23;9.70;;;;;;;7.73;100.00;102926.66;5052498;28;20116;-90
2023/04/18 06:12:47;;;;;;;19.08;11.20;;;;;;;7.82;100.00;102918.03;5051775;28;20047;-90
2023/04/18 06:15:15;;;;;;;19.70;10.02;;;;;;;7.74;100.00;102923.19;5050805;28;20053;-91
2023/04/18 06:17:43;;;;;;;19.75;10.63;;;;;;;7.68;100.00;102915.28;5067805;28;20049;-90
2023/04/18 06:20:10;;;;;;;17.73;10.02;;;;;;;7.60;100.00;102894.38;5049852;28;20068;-89
2023/04/18 06:22:37;;;;;;;19.08;10.27;;;;;;;7.78;100.00;102912.78;5039319;28;20064;-89
2023/04/18 06:25:05;;;;;;;19.00;10.60;;;;;;;7.67;100.00;102916.19;5059883;28;20056;-89
2023/04/18 06:27:32;;;;;;;16.42;7.68;;;;;;;7.92;100.00;102940.75;5047446;28;20055;-89
2023/04/18 06:29:59;;;;;;;15.00;7.90;;;;;;;7.98;100.00;102933.84;5046649;28;20044;-90
2023/04/18 06:32:29;;;;;;;22.58;12.90;;;;;;;7.74;100.00;102936.22;5050481;28;20068;-89
2023/04/18 06:34:57;;;;;;;16.25;8.13;;;;;;;7.83;100.00;102917.19;5056560;28;20462;-89
2023/04/18 06:37:25;;;;;;;18.95;10.40;;;;;;;7.91;100.00;102938.97;5058795;28;20053;-89
2023/04/18 06:39:54;;;;;;;18.52;10.45;;;;;;;7.77;100.00;102928.41;5050061;28;20567;-89
2023/04/18 06:42:21;;;;;;;23.85;11.85;;;;;;;8.18;100.00;102969.66;5057243;28;20057;-89
2023/04/18 06:44:51;;;;;;;16.77;8.98;;;;;;;8.06;100.00;102944.34;5039018;28;20048;-90
2023/04/18 06:47:21;;;;;;;21.42;11.75;;;;;;;7.92;100.00;102933.78;5056139;28;20049;-90
2023/04/18 07:00:39;;;;;;;20.75;9.38;;;;;;;7.79;100.00;102905.81;5190443;27;20887;-88
2023/04/18 07:03:08;;;;;;;16.35;8.20;;;;;;;8.12;100.00;102977.41;5154941;27;20065;-88
2023/04/18 07:05:37;;;;;;;17.75;9.45;;;;;;;8.06;100.00;102965.22;5151622;27;20051;-87
2023/04/18 07:08:04;;;;;;;20.95;10.57;;;;;;;7.96;100.00;102947.72;5156121;27;20047;-87
2023/04/18 07:10:31;;;;;;;17.40;8.82;;;;;;;7.80;100.00;102934.53;5157606;27;20368;-88
2023/04/18 07:12:58;;;;;;;24.25;12.82;;;;;;;8.16;100.00;102979.19;5156655;27;20134;-88
2023/04/18 07:15:25;;;;;;;24.85;13.43;;;;;;;8.01;100.00;102990.38;5160016;27;20054;-88
2023/04/18 07:17:52;;;;;;;21.08;11.75;;;;;;;7.68;100.00;102928.34;5149284;27;20054;-87
2023/04/18 07:20:19;;;;;;;18.73;9.55;;;;;;;7.80;100.00;102915.41;5143484;27;20039;-87
2023/04/18 07:22:46;;;;;;;20.98;12.07;;;;;;;7.94;100.00;102957.28;5156422;27;20046;-88
2023/04/18 07:25:13;;;;;;;18.38;9.77;;;;;;;7.83;100.00;102951.97;5154263;27;20042;-88
2023/04/18 07:27:40;;;;;;;16.65;8.90;;;;;;;8.24;100.00;103003.63;5145961;27;20053;-88
2023/04/18 07:30:08;;;;;;;24.17;14.05;;;;;;;8.06;100.00;102980.88;5156212;27;20042;-88
2023/04/18 07:32:35;;;;;;;20.27;11.52;;;;;;;7.70;100.00;102957.91;5156014;27;20054;-88
2023/04/18 07:35:02;;;;;;;24.25;13.65;;;;;;;7.64;100.00;102940.47;5158446;27;20046;-88
2023/04/18 07:37:30;;;;;;;21.58;12.65;;;;;;;7.70;100.00;102927.50;5155297;27;20106;-88
2023/04/18 07:39:58;;;;;;;20.90;11.13;;;;;;;7.37;100.00;102834.22;5156622;27;20051;-89
2023/04/18 07:42:25;;;;;;;17.80;8.00;;;;;;;8.37;100.00;102960.22;5154833;27;20058;-88
2023/04/18 07:45:01;;;;;;;22.92;11.32;;;;;;;8.79;100.00;103000.56;5155742;27;20066;-88
2023/04/18 07:47:28;;;;;;;15.23;7.88;;;;;;;8.76;100.00;102974.44;5154400;27;20043;-89
2023/04/18 07:49:57;;;;;;;24.80;12.48;;;;;;;9.12;100.00;102973.75;5155481;27;20114;-88
2023/04/18 07:52:24;;;;;;;20.27;10.85;;;;;;;9.53;100.00;102989.59;5153432;27;20047;-89
2023/04/18 07:54:50;;;;;;;23.73;12.85;;;;;;;9.32;100.00;103002.56;5156014;27;20051;-89
2023/04/18 07:57:17;;;;;;;23.13;13.35;;;;;;;9.13;100.00;102983.31;5156742;27;20069;-89
2023/04/18 07:59:44;;;;;;;19.13;10.57;;;;;;;9.11;100.00;102958.91;5151959;27;20043;-89
2023/04/18 08:02:11;;;;;;;18.50;9.98;;;;;;;9.09;100.00;102967.63;5157087;27;20047;-88
2023/04/18 08:04:37;;;;;;;18.08;8.48;;;;;;;9.84;100.00;102986.16;5131284;27;20059;-90
2023/04/18 08:07:05;;;;;;;20.80;12.82;;;;;;;9.88;100.00;102982.66;5143352;27;20131;-89
2023/04/18 08:09:33;;;;;;;23.35;12.15;;;;;;;9.68;100.00;102979.13;5141918;27;20108;-89
2023/04/18 08:11:59;;;;;;;18.27;9.35;;;;;;;10.07;100.00;103014.97;5158439;27;20067;-90
2023/04/18 08:14:26;;;;;;;16.00;8.77;;;;;;;10.56;100.00;102993.16;5141929;27;20047;-89
2023/04/18 08:16:53;;;;;;;16.00;8.85;;;;;;;11.08;100.00;102981.66;5142471;27;20047;-89
2023/04/18 08:19:20;;;;;;;20.05;10.40;;;;;;;10.69;100.00;102951.22;5142413;27;20054;-89
2023/04/18 08:21:49;;;;;;;22.55;13.02;;;;;;;10.99;100.00;102968.59;5141035;27;20161;-89
2023/04/18 08:24:16;;;;;;;16.40;9.57;;;;;;;11.86;100.00;102975.09;5141805;27;20043;-88
2023/04/18 08:26:43;;;;;;;13.80;7.15;;;;;;;12.19;100.00;102962.63;5142603;27;20051;-90
2023/04/18 08:29:10;;;;;;;13.80;7.50;;;;;;;12.58;100.00;102976.28;5141693;27;20050;-90
2023/04/18 08:31:38;;;;;;;17.40;10.30;;;;;;;12.47;100.00;102936.97;5141731;27;20043;-88
2023/04/18 08:34:05;;;;;;;22.10;11.55;;;;;;;12.13;100.00;102949.56;5140853;27;20047;-88
2023/04/18 08:36:32;;;;;;;17.52;10.10;;;;;;;12.12;100.00;102961.81;5142498;27;20051;-89
2023/04/18 08:38:58;;;;;;;17.17;8.88;;;;;;;12.72;100.00;102977.00;5143034;27;20047;-88
2023/04/18 08:41:27;;;;;;;15.38;9.48;;;;;;;12.92;100.00;102983.78;5141788;27;20098;-89
2023/04/18 08:43:54;;;;;;;18.77;11.00;;;;;;;11.91;100.00;102972.50;5141435;27;20043;-89
2023/04/18 08:46:22;;;;;;;18.95;9.98;;;;;;;12.20;100.00;102977.53;5139681;27;20035;-88
2023/04/18 08:48:50;;;;;;;14.82;7.93;;;;;;;12.82;100.00;102984.78;5142705;27;20055;-89
2023/04/18 08:51:17;;;;;;;18.60;11.18;;;;;;;12.39;100.00;102969.47;5140934;27;20082;-89
2023/04/18 08:53:47;;;;;;;19.50;9.98;;;;;;;12.64;100.00;102976.22;5144347;27;20047;-92
2023/04/18 08:56:26;;;;;;;47.53;42.72;;;;;;;12.42;100.00;102935.28;5128129;27;20081;-88
2023/04/18 08:58:54;;;;;;;20.38;13.50;;;;;;;12.62;100.00;102971.84;5129951;27;20388;-89
2023/04/18 09:01:21;;;;;;;20.70;11.63;;;;;;;12.56;100.00;102980.69;5138603;27;20065;-88
2023/04/18 09:03:49;;;;;;;19.17;11.27;;;;;;;12.56;100.00;102983.31;5139019;27;20051;-89
2023/04/18 09:06:17;;;;;;;19.52;11.25;;;;;;;12.52;100.00;102971.09;5139827;27;20051;-88
2023/04/18 09:08:57;;;;;;;17.05;9.60;;;;;;;12.65;100.00;102969.19;5139243;27;20449;-89
2023/04/18 09:11:27;;;;;;;17.27;9.30;;;;;;;13.01;100.00;102964.41;5132917;27;20073;-88
2023/04/18 09:13:57;;;;;;;16.92;9.43;;;;;;;12.68;100.00;103024.38;5138848;27;20043;-89
2023/04/18 09:16:49;;;;;;;22.38;11.55;;;;;;;12.42;100.00;102970.31;5139021;27;20058;-88
2023/04/18 09:19:20;;;;;;;17.38;7.82;;;;;;;12.48;100.00;103004.41;5140024;27;20078;-89
2023/04/18 09:21:57;;;;;;;19.98;11.75;;;;;;;12.34;100.00;102995.75;5140101;27;20039;-88
2023/04/18 09:24:25;;;;;;;23.08;11.10;;;;;;;12.32;100.00;103040.47;5139092;27;20055;-88
2023/04/18 09:26:54;;;;;;;23.30;11.25;;;;;;;12.24;100.00;102976.59;5156068;27;20468;-88
2023/04/18 09:29:42;;;;;;;25.83;12.68;;;;;;;12.21;100.00;103038.78;5140287;27;20051;-88
2023/04/18 09:32:08;;;;;;;17.63;10.00;;;;;;;12.20;100.00;103005.53;5135194;27;20060;-89
2023/04/18 09:34:41;;;;;;;20.00;10.57;;;;;;;12.48;100.00;103035.94;5138541;27;20055;-88
2023/04/18 09:37:10;;;;;;;22.97;13.40;;;;;;;12.42;100.00;103037.75;5127726;27;20083;-88
2023/04/18 09:39:46;;;;;;;18.95;10.20;;;;;;;12.66;100.00;103013.88;5138430;27;20047;-88
2023/04/18 09:42:13;;;;;;;19.92;11.90;;;;;;;12.22;100.00;103003.78;5133535;27;20051;-88
2023/04/18 09:45:05;;;;;;;18.25;10.48;;;;;;;12.02;100.00;102977.66;5139354;27;20051;-89
2023/04/18 09:47:36;;;;;;;18.13;10.15;;;;;;;12.18;100.00;103004.66;5124027;27;20048;-88
2023/04/18 09:50:05;;;;;;;18.15;10.48;;;;;;;12.60;100.00;102989.41;5158949;27;20051;-88
2023/04/18 09:52:37;;;;;;;21.52;13.60;;;;;;;12.25;100.00;102994.13;5137953;27;20051;-89
2023/04/18 09:55:09;;;;;;;19.50;11.43;;;;;;;12.35;100.00;103003.63;5123864;27;20126;-89
2023/04/18 09:57:39;;;;;;;19.35;11.57;;;;;;;12.30;100.00;102973.03;5138012;27;20051;-89
2023/04/18 10:00:09;;;;;;;17.92;9.90;;;;;;;12.47;100.00;103047.31;5137159;27;20047;-88
2023/04/18 10:02:46;;;;;;;21.13;11.43;;;;;;;12.11;100.00;102967.97;5137699;27;20484;-89
2023/04/18 10:05:15;;;;;;;22.23;12.82;;;;;;;12.21;100.00;103013.38;5138807;27;20053;-89
2023/04/18 10:07:47;;;;;;;23.55;13.88;;;;;;;12.12;100.00;103043.22;5137809;27;20051;-89
2023/04/18 10:10:15;;;;;;;20.83;12.02;;;;;;;12.66;100.00;103048.03;5131219;27;20039;-90
2023/04/18 10:12:43;;;;;;;22.00;12.80;;;;;;;12.53;100.00;103036.75;5145824;27;20045;-87
2023/04/18 10:15:10;;;;;;;21.92;12.32;;;;;;;12.38;100.00;103001.84;5162652;27;20126;-89
2023/04/18 10:17:42;;;;;;;22.13;11.45;;;;;;;12.28;100.00;103016.84;5146872;27;20142;-91
2023/04/18 10:20:30;;;;;;;20.35;11.27;;;;;;;12.51;100.00;103056.06;5148188;27;20520;-91
2023/04/18 10:22:59;;;;;;;21.25;12.65;;;;;;;12.44;100.00;103046.47;5147194;27;20173;-91
2023/04/18 10:25:37;;;;;;;20.50;11.77;;;;;;;12.56;100.00;103053.41;5141181;27;20047;-90
2023/04/18 10:28:07;;;;;;;17.85;10.52;;;;;;;12.68;100.00;103022.59;5141042;27;20031;-90
2023/04/18 10:30:40;;;;;;;22.23;11.95;;;;;;;12.46;100.00;103015.81;5144190;27;20048;-90
2023/04/18 10:33:29;;;;;;;18.65;9.55;;;;;;;12.33;100.00;103039.56;5144328;27;20142;-91
2023/04/18 10:36:01;;;;;;;19.50;9.63;;;;;;;12.44;100.00;103028.94;5148066;27;20057;-90
2023/04/18 10:38:30;;;;;;;17.70;10.18;;;;;;;12.69;100.00;103007.69;5144644;27;20058;-92
2023/04/18 10:41:16;;;;;;;23.30;12.77;;;;;;;12.90;100.00;103040.78;5147148;27;20051;-91
2023/04/18 10:44:05;;;;;;;18.92;9.38;;;;;;;13.52;100.00;103051.47;5131296;27;20125;-91
2023/04/18 10:46:39;;;;;;;16.23;8.10;;;;;;;12.96;100.00;102972.38;5146713;27;20039;-90
2023/04/18 10:49:36;;;;;;;22.40;11.15;;;;;;;13.37;100.00;103049.03;5148505;28;20058;-91
2023/04/18 10:52:07;;;;;;;17.52;9.20;;;;;;;13.53;100.00;103037.44;5137492;28;20454;-91
2023/04/18 10:54:55;;;;;;;15.45;8.38;;;;;;;13.63;100.00;103054.88;5132594;28;20047;-91
2023/04/18 10:57:40;;;;;;;17.88;9.52;;;;;;;13.32;100.00;103008.78;5142041;28;20162;-91
2023/04/18 11:00:17;;;;;;;17.90;9.48;;;;;;;12.99;100.00;102972.31;5117637;28;20048;-91
2023/04/18 11:02:59;;;;;;;15.70;9.35;;;;;;;13.60;100.00;103048.78;5144992;28;20468;-92
2023/04/18 11:05:39;;;;;;;19.75;10.75;;;;;;;13.64;100.00;103055.72;5149216;28;20046;-91
2023/04/18 11:08:22;;;;;;;20.90;11.48;;;;;;;13.71;100.00;103057.38;5148253;28;20039;-91
2023/04/18 11:11:07;;;;;;;20.63;10.97;;;;;;;13.56;100.00;103021.59;5132761;28;20137;-91
2023/04/18 11:13:58;;;;;;;19.75;10.63;;;;;;;13.66;100.00;103057.44;5133372;28;20027;-91
2023/04/18 11:16:31;;;;;;;21.15;11.65;;;;;;;13.50;100.00;103019.06;5131064;28;20051;-92
2023/04/18 11:19:18;;;;;;;23.77;12.77;;;;;;;13.28;100.00;103037.72;5143996;28;20088;-90
2023/04/18 11:21:45;;;;;;;16.90;10.18;;;;;;;13.08;100.00;103022.19;5146892;28;20130;-91
2023/04/18 11:24:20;;;;;;;21.13;10.38;;;;;;;13.36;100.00;103050.81;5146315;28;20079;-92
2023/04/18 11:26:54;;;;;;;22.70;12.25;;;;;;;13.32;100.00;103028.06;5129970;28;20041;-92
2023/04/18 11:29:22;;;;;;;20.25;11.68;;;;;;;13.46;100.00;103033.16;5145890;28;20093;-91
2023/04/18 11:31:52;;;;;;;18.38;11.52;;;;;;;13.10;100.00;103059.84;5145458;27;20118;-92
2023/04/18 11:34:29;;;;;;;22.65;13.13;;;;;;;13.33;100.00;103048.19;5146648;27;20047;-92
2023/04/18 11:36:56;;;;;;;23.45;12.55;;;;;;;12.78;100.00;103028.63;5151321;27;20053;-92
2023/04/18 11:39:24;;;;;;;23.70;12.70;;;;;;;12.96;100.00;103074.03;5150702;27;20460;-91
2023/04/18 11:41:51;;;;;;;19.35;11.52;;;;;;;13.03;100.00;103058.19;5145986;27;20106;-92
2023/04/18 11:44:24;;;;;;;19.73;11.75;;;;;;;13.06;100.00;103023.06;5150897;27;20057;-92
2023/04/18 11:46:52;;;;;;;20.75;11.98;;;;;;;12.94;100.00;103028.47;5138415;27;20485;-92
2023/04/18 11:49:31;;;;;;;23.75;13.27;;;;;;;13.05;100.00;103055.50;5139794;27;20047;-92
2023/04/18 11:52:00;;;;;;;21.23;11.75;;;;;;;13.06;100.00;103031.81;5150018;27;20031;-92
2023/04/18 11:54:43;;;;;;;22.17;12.32;;;;;;;13.14;100.00;103049.28;5151995;27;20054;-92
2023/04/18 11:57:25;;;;;;;15.77;9.18;;;;;;;13.21;100.00;103045.69;5152426;27;20122;-92
2023/04/18 12:00:07;;;;;;;18.05;9.88;;;;;;;12.90;100.00;102961.91;5136816;27;20526;-92
2023/04/18 12:02:50;;;;;;;21.80;12.97;;;;;;;13.01;100.00;102974.91;5139224;27;20087;-92
2023/04/18 12:05:30;;;;;;;20.40;11.98;;;;;;;12.62;100.00;103029.69;5132007;28;20072;-92